Time;durP1;ratioP1;P1;durP2;ratioP2;P2;SDS_P1;SDS_P2;PMS_P1;PMS_P2;Temp;Humidity;BMP_temperature;BMP_pressure;BME280_temperature;BME280_humidity;BME280_pressure;Samples;Min_cycle;Max_cycle;Signal;HPM_P1;HPM_P2
2023/10/07 00:02:13;;;;;;;13.45;4.13;;;15.40;99.90;;;;;;5061438;28;20477;-46
2023/10/07 00:04:40;;;;;;;15.48;4.55;;;15.40;99.90;;;;;;5055515;28;20154;-49
2023/10/07 00:07:10;;;;;;;12.88;3.92;;;15.40;99.90;;;;;;5051365;28;20121;-47
2023/10/07 00:09:49;;;;;;;13.30;3.85;;;15.30;99.90;;;;;;5054304;28;20037;-46
2023/10/07 00:12:18;;;;;;;11.13;4.00;;;15.30;99.90;;;;;;5060863;28;20560;-46
2023/10/07 00:14:44;;;;;;;13.45;4.72;;;15.30;99.90;;;;;;5059770;28;20037;-46
2023/10/07 00:17:17;;;;;;;14.75;4.65;;;15.40;99.90;;;;;;5068041;28;20083;-47
2023/10/07 00:19:47;;;;;;;12.00;3.95;;;15.40;99.90;;;;;;5057934;28;20048;-48
2023/10/07 00:22:19;;;;;;;10.52;3.90;;;15.50;99.90;;;;;;5060002;28;20048;-46
2023/10/07 00:24:46;;;;;;;11.30;4.13;;;15.50;99.90;;;;;;5057857;28;20052;-49
2023/10/07 00:27:29;;;;;;;12.05;4.20;;;15.60;99.90;;;;;;5053392;28;20574;-46
2023/10/07 00:29:55;;;;;;;13.88;4.35;;;15.60;99.90;;;;;;5052767;28;20487;-45
2023/10/07 00:32:27;;;;;;;12.52;4.40;;;15.60;99.90;;;;;;5060229;28;20491;-46
2023/10/07 00:34:55;;;;;;;12.35;4.45;;;15.70;99.90;;;;;;5053696;28;20106;-46
2023/10/07 00:37:23;;;;;;;;;;;15.70;99.90;;;;;;5058320;28;20053;-46
2023/10/07 00:39:50;;;;;;;14.05;4.22;;;15.70;99.90;;;;;;5056362;28;19931;-47
2023/10/07 00:42:16;;;;;;;14.20;4.53;;;15.70;99.90;;;;;;5055416;28;20037;-49
2023/10/07 00:44:44;;;;;;;14.75;4.43;;;15.70;99.90;;;;;;5048907;28;20463;-47
2023/10/07 00:47:12;;;;;;;15.38;4.22;;;15.80;99.90;;;;;;5060814;28;20498;-48
2023/10/07 00:49:41;;;;;;;14.02;4.07;;;15.80;99.90;;;;;;5061332;28;20048;-47
2023/10/07 00:52:33;;;;;;;13.05;4.18;;;15.80;99.90;;;;;;5057245;28;20052;-46
2023/10/07 00:59:57;;;;;;;16.95;4.68;;;16.00;99.90;;;;;;5051411;28;20071;-47
2023/10/07 01:02:30;;;;;;;13.38;4.95;;;16.10;99.90;;;;;;5065092;28;20050;-48
2023/10/07 01:05:00;;;;;;;14.70;4.80;;;15.90;99.90;;;;;;5062631;28;20041;-46
2023/10/07 01:07:27;;;;;;;14.85;4.45;;;15.90;99.90;;;;;;5058052;28;20123;-47
2023/10/07 01:10:12;;;;;;;14.77;4.63;;;15.90;99.90;;;;;;5067323;28;20076;-47
2023/10/07 01:12:42;;;;;;;14.30;4.38;;;16.00;99.90;;;;;;5060859;28;20047;-46
2023/10/07 01:15:30;;;;;;;10.82;4.13;;;16.00;99.90;;;;;;5068208;28;20045;-46
2023/10/07 01:18:05;;;;;;;12.40;4.35;;;16.10;99.90;;;;;;5059568;28;20068;-46
2023/10/07 01:20:59;;;;;;;16.10;4.60;;;16.10;99.90;;;;;;5059499;28;20047;-46
2023/10/07 01:23:32;;;;;;;13.52;5.13;;;16.10;99.90;;;;;;5068683;28;20415;-46
2023/10/07 01:25:59;;;;;;;15.35;4.70;;;16.20;99.90;;;;;;5062514;28;20040;-49
2023/10/07 01:28:32;;;;;;;12.68;4.30;;;16.20;99.90;;;;;;5069584;28;20049;-49
2023/10/07 01:31:07;;;;;;;13.65;4.60;;;16.00;99.90;;;;;;5060763;28;20510;-47
2023/10/07 01:34:13;;;;;;;11.85;4.47;;;16.20;99.90;;;;;;5068695;28;20090;-47
2023/10/07 01:36:28;;;;;;;15.57;4.88;;;16.20;99.90;;;;;;5059077;28;20080;-48
2023/10/07 01:39:01;;;;;;;13.15;4.68;;;16.10;99.90;;;;;;5069101;28;20090;-46
2023/10/07 01:41:31;;;;;;;9.93;4.13;;;16.00;99.90;;;;;;5067303;28;20102;-47
2023/10/07 01:44:00;;;;;;;15.18;5.35;;;16.00;99.90;;;;;;5057942;28;20059;-49
2023/10/07 01:46:29;;;;;;;14.75;4.47;;;17.00;99.90;;;;;;5065694;28;20048;-46
2023/10/07 01:49:11;;;;;;;10.65;4.55;;;16.10;99.90;;;;;;5052329;28;20147;-47
2023/10/07 01:51:44;;;;;;;13.35;4.60;;;16.10;99.90;;;;;;5064215;28;20373;-46
2023/10/07 01:54:11;;;;;;;12.35;5.35;;;16.10;99.90;;;;;;5058218;28;20033;-46
2023/10/07 01:56:38;;;;;;;;;;;16.10;99.90;;;;;;5056996;28;20045;-47
2023/10/07 01:59:19;;;;;;;18.15;4.95;;;16.10;99.90;;;;;;5053348;28;20276;-48
2023/10/07 02:01:51;;;;;;;18.10;5.78;;;16.10;99.90;;;;;;5060840;28;20055;-48
2023/10/07 02:04:18;;;;;;;13.82;4.90;;;16.20;99.90;;;;;;5063117;28;20150;-46
2023/10/07 02:06:51;;;;;;;16.58;5.10;;;16.10;99.90;;;;;;5062687;28;20132;-46
2023/10/07 02:09:25;;;;;;;11.23;5.22;;;16.20;99.90;;;;;;5070648;28;20032;-49
2023/10/07 02:11:56;;;;;;;12.32;4.88;;;16.20;99.90;;;;;;5057072;28;20076;-47
2023/10/07 02:14:24;;;;;;;15.27;5.25;;;16.20;99.90;;;;;;5067103;28;20091;-46
2023/10/07 02:16:56;;;;;;;16.05;6.32;;;16.30;99.90;;;;;;5063190;28;20410;-46
2023/10/07 02:19:32;;;;;;;15.88;5.60;;;16.40;99.90;;;;;;5054538;28;20133;-46
2023/10/07 02:22:02;;;;;;;12.82;5.13;;;16.30;99.90;;;;;;5064908;28;20044;-47
2023/10/07 02:24:29;;;;;;;14.38;5.18;;;16.30;99.90;;;;;;5062751;28;20040;-47
2023/10/07 02:27:00;;;;;;;16.70;5.97;;;16.40;99.90;;;;;;5071269;28;20048;-48
2023/10/07 02:29:29;;;;;;;13.52;5.15;;;16.40;99.90;;;;;;5065105;28;20363;-48
2023/10/07 02:32:06;;;;;;;14.60;5.43;;;16.40;99.90;;;;;;5059702;28;20056;-47
2023/10/07 02:34:33;;;;;;;13.57;5.25;;;16.40;99.90;;;;;;5064810;28;20433;-46
2023/10/07 02:37:13;;;;;;;15.88;5.40;;;16.40;99.90;;;;;;5069701;28;20055;-48
2023/10/07 02:39:48;;;;;;;16.48;5.45;;;16.40;99.90;;;;;;5055674;28;20406;-46
2023/10/07 02:42:54;;;;;;;16.13;5.53;;;16.40;99.90;;;;;;5071153;28;20147;-49
2023/10/07 02:47:51;;;;;;;13.38;6.20;;;16.40;99.90;;;;;;5069316;28;20080;-47
2023/10/07 02:50:17;;;;;;;17.17;5.57;;;16.40;99.90;;;;;;5056229;28;20052;-49
2023/10/07 02:52:46;;;;;;;13.23;5.63;;;16.40;99.90;;;;;;5060774;28;20056;-46
2023/10/07 02:57:55;;;;;;;13.38;5.60;;;16.40;99.90;;;;;;5056126;28;20105;-46
2023/10/07 03:00:38;;;;;;;13.57;5.30;;;16.40;99.90;;;;;;5060278;28;20049;-46
2023/10/07 03:03:48;;;;;;;14.35;5.47;;;16.50;99.90;;;;;;5067263;28;20128;-48
2023/10/07 03:05:59;;;;;;;15.25;5.85;;;16.50;99.90;;;;;;5053654;28;20054;-45
2023/10/07 03:08:40;;;;;;;14.90;5.20;;;16.50;99.90;;;;;;5055049;28;20131;-46
2023/10/07 03:11:11;;;;;;;18.45;5.63;;;16.40;99.90;;;;;;5059359;28;20454;-46
2023/10/07 03:13:39;;;;;;;18.17;5.47;;;16.50;99.90;;;;;;5063041;28;20048;-46
2023/10/07 03:18:56;;;;;;;13.60;6.00;;;16.50;99.90;;;;;;5062675;28;20048;-48
2023/10/07 03:24:14;;;;;;;15.60;5.50;;;16.50;99.90;;;;;;5063081;28;20513;-47
2023/10/07 03:26:42;;;;;;;14.63;5.70;;;16.50;99.90;;;;;;5063114;28;20105;-49
2023/10/07 03:29:08;;;;;;;15.30;6.05;;;16.50;99.90;;;;;;5068712;28;20032;-48
2023/10/07 03:31:35;;;;;;;14.07;5.07;;;16.50;99.90;;;;;;5068913;28;20534;-48
2023/10/07 03:34:09;;;;;;;11.25;5.55;;;16.50;99.90;;;;;;5065778;28;20048;-46
2023/10/07 03:36:41;;;;;;;13.25;5.60;;;16.50;99.90;;;;;;5058497;28;20064;-48
2023/10/07 03:42:23;;;;;;;15.07;5.60;;;16.50;99.90;;;;;;5057415;28;20062;-48
2023/10/07 03:44:31;;;;;;;14.82;5.50;;;16.60;99.90;;;;;;5059484;28;20057;-47
2023/10/07 03:46:57;;;;;;;16.20;6.57;;;16.50;99.90;;;;;;5063050;28;20041;-50
2023/10/07 03:49:33;;;;;;;12.75;5.20;;;16.50;99.90;;;;;;5062913;28;20474;-46
2023/10/07 03:52:07;;;;;;;18.20;5.95;;;16.50;99.90;;;;;;5064011;28;20037;-46
2023/10/07 03:54:34;;;;;;;15.23;5.60;;;16.50;99.90;;;;;;5062032;28;20056;-46
2023/10/07 03:57:02;;;;;;;15.05;5.60;;;16.50;99.90;;;;;;5065004;28;20036;-46
2023/10/07 03:59:34;;;;;;;12.32;5.43;;;16.50;99.90;;;;;;5059362;28;20047;-46
2023/10/07 04:02:01;;;;;;;20.15;6.22;;;16.50;99.90;;;;;;5058685;28;20089;-46
2023/10/07 04:04:27;;;;;;;19.52;5.75;;;16.50;99.90;;;;;;5058811;28;20047;-46
2023/10/07 04:06:53;;;;;;;16.73;6.07;;;16.60;99.90;;;;;;5062727;28;20044;-46
2023/10/07 04:09:27;;;;;;;17.95;5.53;;;16.50;99.90;;;;;;5058034;28;20431;-46
2023/10/07 04:11:52;;;;;;;16.60;6.35;;;16.50;99.90;;;;;;5056102;28;20052;-46
2023/10/07 04:14:27;;;;;;;17.85;6.03;;;16.50;99.90;;;;;;5065342;28;20044;-46
2023/10/07 04:16:54;;;;;;;16.65;5.90;;;16.50;99.90;;;;;;5054994;28;20055;-47
2023/10/07 04:21:51;;;;;;;20.50;5.65;;;16.50;99.90;;;;;;5058541;28;20105;-48
2023/10/07 04:24:18;;;;;;;;;;;16.60;99.90;;;;;;5060723;28;20036;-47
2023/10/07 04:26:54;;;;;;;16.35;5.88;;;16.60;99.90;;;;;;5056968;28;19924;-47
2023/10/07 04:29:24;;;;;;;18.90;6.15;;;16.50;99.90;;;;;;5058496;28;20510;-46
2023/10/07 04:31:52;;;;;;;14.00;6.00;;;16.50;99.90;;;;;;5054155;28;20045;-47
2023/10/07 04:34:18;;;;;;;16.15;5.75;;;16.50;99.90;;;;;;5054626;28;20059;-46
2023/10/07 04:42:06;;;;;;;16.58;5.38;;;16.60;99.90;;;;;;5064535;28;20139;-47
2023/10/07 04:50:07;;;;;;;21.65;6.05;;;16.60;99.90;;;;;;5065248;28;20076;-49
2023/10/07 04:52:40;;;;;;;15.75;5.65;;;16.60;99.90;;;;;;5070325;28;20124;-47
2023/10/07 04:55:15;;;;;;;16.25;6.03;;;16.60;99.90;;;;;;5072953;28;20045;-48
2023/10/07 05:03:14;;;;;;;14.73;6.13;;;16.60;99.90;;;;;;5054187;28;20091;-46
2023/10/07 05:05:43;;;;;;;16.25;5.40;;;16.60;99.90;;;;;;5054275;28;20048;-48
2023/10/07 05:08:17;;;;;;;16.80;6.10;;;16.60;99.90;;;;;;5070651;28;20381;-47
2023/10/07 05:10:50;;;;;;;12.10;5.53;;;16.60;99.90;;;;;;5063279;28;20521;-46
2023/10/07 05:13:16;;;;;;;21.02;5.93;;;16.60;99.90;;;;;;5069680;28;20462;-46
2023/10/07 05:15:42;;;;;;;20.02;5.90;;;16.60;99.90;;;;;;5069808;28;20472;-46
2023/10/07 05:18:12;;;;;;;13.63;5.82;;;16.60;99.90;;;;;;5063590;28;20041;-49
2023/10/07 05:20:41;;;;;;;16.83;5.68;;;16.60;99.90;;;;;;5063185;28;20036;-46
2023/10/07 05:23:09;;;;;;;17.20;5.63;;;16.60;99.90;;;;;;5067937;28;20036;-46
2023/10/07 05:25:42;;;;;;;16.75;5.68;;;16.60;99.90;;;;;;5062011;28;20045;-48
2023/10/07 05:28:10;;;;;;;14.20;5.40;;;16.60;99.90;;;;;;5067085;28;20548;-49
2023/10/07 05:30:50;;;;;;;19.10;6.15;;;16.60;99.90;;;;;;5057521;28;20048;-47
2023/10/07 05:33:17;;;;;;;14.82;6.15;;;16.50;99.90;;;;;;5064900;28;20041;-46
2023/10/07 05:35:43;;;;;;;16.50;5.65;;;16.50;99.90;;;;;;5065324;28;20045;-49
2023/10/07 05:38:12;;;;;;;15.15;5.63;;;16.50;99.90;;;;;;5067268;28;20137;-46
2023/10/07 05:40:37;;;;;;;15.15;5.85;;;16.50;99.90;;;;;;5072166;28;20041;-47
2023/10/07 05:43:06;;;;;;;15.23;6.03;;;16.50;99.90;;;;;;5059425;28;20391;-49
2023/10/07 05:45:33;;;;;;;14.88;5.60;;;16.40;99.90;;;;;;5061450;28;20131;-49
2023/10/07 05:47:59;;;;;;;16.60;6.35;;;16.40;99.90;;;;;;5061719;28;20071;-49
2023/10/07 05:50:27;;;;;;;16.65;6.70;;;16.40;99.90;;;;;;5039486;28;20503;-46
2023/10/07 05:52:54;;;;;;;16.02;6.45;;;16.40;99.90;;;;;;5063665;28;20052;-46
2023/10/07 05:55:22;;;;;;;19.30;7.25;;;16.40;99.90;;;;;;5068974;28;20487;-46
2023/10/07 05:57:48;;;;;;;16.05;6.55;;;16.40;99.90;;;;;;5068517;28;20044;-46
2023/10/07 06:00:17;;;;;;;17.45;6.40;;;16.30;99.90;;;;;;5063121;28;20041;-46
2023/10/07 06:02:42;;;;;;;18.20;6.88;;;16.30;99.90;;;;;;5055237;28;20062;-48
2023/10/07 06:05:10;;;;;;;15.00;6.20;;;16.30;99.90;;;;;;5060824;28;20051;-48
2023/10/07 06:07:38;;;;;;;15.43;6.78;;;16.30;99.90;;;;;;5056032;28;20048;-49
2023/10/07 06:10:09;;;;;;;22.15;7.05;;;16.30;99.90;;;;;;5061017;28;20041;-46
2023/10/07 06:12:35;;;;;;;13.45;6.65;;;16.30;99.90;;;;;;5064738;28;20084;-46
2023/10/07 06:15:01;;;;;;;16.95;6.88;;;16.30;99.90;;;;;;5056972;28;20509;-49
2023/10/07 06:17:26;;;;;;;14.77;6.13;;;16.40;99.90;;;;;;5060490;28;20032;-47
2023/10/07 06:19:52;;;;;;;16.33;6.35;;;16.30;99.90;;;;;;5066603;28;20037;-48
2023/10/07 06:22:20;;;;;;;20.00;7.20;;;16.30;99.90;;;;;;5064484;28;20071;-49
2023/10/07 06:24:52;;;;;;;15.45;6.22;;;16.40;99.90;;;;;;5062386;28;20048;-49
2023/10/07 06:27:21;;;;;;;16.27;7.03;;;16.40;99.90;;;;;;5064785;28;20048;-46
2023/10/07 06:29:48;;;;;;;16.83;7.07;;;16.40;99.90;;;;;;5068282;28;20044;-47
2023/10/07 06:32:23;;;;;;;23.20;7.75;;;16.40;99.90;;;;;;5063156;28;20049;-46
2023/10/07 06:34:54;;;;;;;19.77;6.60;;;16.50;99.90;;;;;;5055292;28;20049;-47
2023/10/07 06:37:25;;;;;;;16.20;7.07;;;16.50;99.90;;;;;;5059149;28;20068;-49
2023/10/07 06:39:51;;;;;;;15.85;6.60;;;16.50;99.90;;;;;;5060379;28;20059;-49
2023/10/07 06:42:24;;;;;;;13.70;6.35;;;16.60;99.90;;;;;;5060962;28;20111;-46
2023/10/07 06:44:58;;;;;;;19.25;7.47;;;16.60;99.90;;;;;;5062113;28;20143;-49
2023/10/07 06:47:29;;;;;;;18.33;6.57;;;16.80;99.90;;;;;;5067600;28;20066;-47
2023/10/07 06:49:56;;;;;;;16.83;6.75;;;16.60;99.90;;;;;;5059693;28;20049;-49
2023/10/07 06:52:22;;;;;;;16.90;6.80;;;16.80;99.90;;;;;;5053761;28;20044;-49
2023/10/07 06:54:54;;;;;;;17.23;7.07;;;16.70;99.90;;;;;;5054602;28;20625;-49
2023/10/07 06:57:20;;;;;;;16.77;6.90;;;16.70;99.90;;;;;;5063253;28;20044;-49
2023/10/07 06:59:45;;;;;;;17.98;6.93;;;16.80;99.90;;;;;;5062719;28;20058;-49
2023/10/07 07:02:18;;;;;;;15.30;6.82;;;16.80;99.90;;;;;;5057292;28;20044;-49
2023/10/07 07:04:43;;;;;;;20.70;6.90;;;16.70;99.90;;;;;;5058254;28;20047;-46
2023/10/07 07:07:16;;;;;;;17.50;7.10;;;16.70;99.90;;;;;;5066827;28;20036;-46
2023/10/07 07:12:12;;;;;;;17.35;7.00;;;16.70;99.90;;;;;;5067302;28;20194;-47
2023/10/07 07:14:42;;;;;;;18.13;6.85;;;16.80;99.90;;;;;;5069165;28;20047;-47
2023/10/07 07:22:44;;;;;;;21.48;7.65;;;16.80;99.90;;;;;;5069099;28;20114;-47
2023/10/07 07:25:11;;;;;;;16.50;7.22;;;16.80;99.90;;;;;;5071811;28;20044;-48
2023/10/07 07:27:38;;;;;;;14.30;6.75;;;;;;;;;;5071123;28;20048;-47
2023/10/07 07:30:04;;;;;;;20.88;7.03;;;16.90;99.90;;;;;;5071529;28;20471;-49
2023/10/07 07:32:33;;;;;;;20.58;6.65;;;17.00;99.90;;;;;;5070939;28;20046;-48
2023/10/07 07:35:04;;;;;;;15.52;7.40;;;17.00;99.90;;;;;;5065107;28;20455;-48
2023/10/07 07:37:34;;;;;;;18.05;6.85;;;17.00;99.90;;;;;;5064742;28;20044;-49
2023/10/07 07:40:09;;;;;;;17.35;6.82;;;17.20;99.90;;;;;;5067903;28;20133;-49
2023/10/07 07:42:35;;;;;;;15.15;6.30;;;17.20;99.90;;;;;;5067218;28;20045;-47
2023/10/07 07:45:01;;;;;;;14.90;6.47;;;17.30;99.90;;;;;;5068821;28;20052;-49
2023/10/07 07:47:31;;;;;;;15.48;6.38;;;17.50;99.90;;;;;;5064053;28;20048;-47
2023/10/07 07:49:57;;;;;;;17.17;6.43;;;;;;;;;;5071142;28;20045;-50
2023/10/07 07:52:25;;;;;;;;;;;18.00;99.90;;;;;;5065720;28;20072;-47
2023/10/07 07:54:53;;;;;;;16.03;6.60;;;18.10;99.90;;;;;;5067387;28;19927;-46
2023/10/07 07:57:22;;;;;;;;;;;18.50;99.90;;;;;;5059696;28;20310;-48
2023/10/07 07:59:48;;;;;;;14.90;5.63;;;18.60;99.90;;;;;;5062035;28;20061;-46
2023/10/07 08:02:17;;;;;;;14.00;5.35;;;18.70;99.90;;;;;;5056184;28;20076;-47
2023/10/07 08:04:47;;;;;;;11.48;5.18;;;18.70;99.90;;;;;;5063431;28;20046;-49
2023/10/07 08:09:50;;;;;;;12.98;5.43;;;18.60;99.90;;;;;;5059995;28;20136;-47
2023/10/07 08:12:20;;;;;;;13.15;5.13;;;18.60;99.90;;;;;;5041716;28;20055;-46
2023/10/07 08:14:50;;;;;;;13.40;5.10;;;18.60;99.90;;;;;;5064721;28;20043;-48
2023/10/07 08:17:19;;;;;;;13.73;5.10;;;18.60;99.90;;;;;;5061946;28;20036;-48
2023/10/07 08:19:52;;;;;;;13.82;4.68;;;18.80;99.90;;;;;;5064494;28;20501;-49
2023/10/07 08:22:20;;;;;;;15.43;4.90;;;19.10;99.90;;;;;;5058387;28;20120;-48
2023/10/07 08:24:46;;;;;;;12.07;4.50;;;19.20;99.90;;;;;;5064647;28;20052;-48
2023/10/07 08:30:09;;;;;;;14.85;4.63;;;19.40;99.90;;;;;;5053989;28;20179;-46
2023/10/07 08:32:37;;;;;;;14.05;4.70;;;19.40;99.90;;;;;;5061739;28;20123;-47
2023/10/07 08:35:18;;;;;;;11.70;4.50;;;19.40;99.90;;;;;;5061936;28;20041;-47
2023/10/07 08:37:47;;;;;;;15.25;4.57;;;19.30;99.90;;;;;;5063331;28;20040;-47
2023/10/07 08:40:26;;;;;;;9.48;4.15;;;19.20;99.90;;;;;;5068987;28;21033;-47
2023/10/07 08:42:58;;;;;;;9.77;4.03;;;19.30;99.90;;;;;;5064795;28;20387;-48
2023/10/07 08:45:25;;;;;;;10.02;4.13;;;;;;;;;;5055262;28;20498;-46
2023/10/07 08:48:19;;;;;;;8.63;4.10;;;;;;;;;;5063555;28;20404;-47
2023/10/07 08:50:55;;;;;;;8.90;3.83;;;19.80;99.90;;;;;;5064834;28;20045;-48
2023/10/07 08:53:24;;;;;;;9.80;3.70;;;19.90;99.90;;;;;;5063489;28;20508;-47
2023/10/07 08:55:57;;;;;;;17.63;4.75;;;19.90;99.90;;;;;;5056111;28;20045;-46
2023/10/07 08:58:27;;;;;;;10.30;4.25;;;20.00;99.90;;;;;;5059495;28;20040;-46
2023/10/07 09:00:55;;;;;;;11.45;4.05;;;20.00;99.90;;;;;;5062763;28;20055;-46
2023/10/07 09:03:26;;;;;;;12.38;4.25;;;20.00;99.90;;;;;;5050774;28;20045;-47
2023/10/07 09:05:53;;;;;;;9.05;4.00;;;19.90;99.90;;;;;;5067569;28;20471;-46
2023/10/07 09:08:22;;;;;;;12.32;3.88;;;19.60;99.90;;;;;;5059925;28;20438;-46
2023/10/07 09:10:51;;;;;;;12.02;3.25;;;19.40;99.90;;;;;;5057740;28;20069;-46
2023/10/07 09:13:27;;;;;;;10.45;4.03;;;19.40;99.90;;;;;;5065231;28;20041;-46
2023/10/07 09:15:59;;;;;;;11.10;4.35;;;19.40;99.90;;;;;;5060072;28;20455;-45
2023/10/07 09:18:28;;;;;;;10.00;4.38;;;19.50;99.90;;;;;;5059641;28;20433;-46
2023/10/07 09:20:57;;;;;;;13.25;4.07;;;19.60;99.90;;;;;;5059576;28;20048;-46
2023/10/07 09:23:24;;;;;;;13.07;4.18;;;19.60;99.90;;;;;;5070444;28;20105;-47
2023/10/07 09:25:51;;;;;;;;;;;19.70;99.90;;;;;;5070857;28;20093;-48
2023/10/07 09:28:21;;;;;;;10.07;4.43;;;20.00;99.90;;;;;;5055901;28;19920;-46
2023/10/07 09:30:48;;;;;;;12.27;3.72;;;20.10;99.90;;;;;;5065638;28;20505;-46
2023/10/07 09:33:18;;;;;;;9.40;3.63;;;20.30;99.90;;;;;;5057419;28;20048;-46
2023/10/07 09:36:24;;;;;;;10.10;3.95;;;20.30;99.90;;;;;;5066423;28;20040;-46
2023/10/07 09:38:41;;;;;;;9.15;3.70;;;20.60;99.90;;;;;;5062717;28;20049;-47
2023/10/07 09:41:23;;;;;;;9.93;4.05;;;20.60;99.90;;;;;;5062644;28;20169;-47
2023/10/07 09:43:56;;;;;;;8.88;3.70;;;20.70;99.90;;;;;;5063706;28;20487;-46
2023/10/07 09:46:25;;;;;;;16.48;4.70;;;20.90;99.90;;;;;;5058451;28;20426;-47
2023/10/07 09:48:57;;;;;;;11.85;4.28;;;21.00;99.90;;;;;;5060510;28;20044;-46
2023/10/07 09:51:24;;;;;;;10.07;4.18;;;21.20;99.90;;;;;;5064477;28;20040;-48
2023/10/07 09:54:16;;;;;;;9.05;4.25;;;21.30;99.90;;;;;;5062205;28;20045;-46
2023/10/07 09:57:06;;;;;;;9.98;3.78;;;21.30;99.90;;;;;;5059791;28;20517;-46
2023/10/07 09:59:51;;;;;;;9.43;3.60;;;21.30;99.90;;;;;;5067298;28;20036;-46
2023/10/07 10:03:20;;;;;;;10.25;3.55;;;21.50;99.90;;;;;;5068031;28;20044;-49
2023/10/07 10:06:16;;;;;;;12.00;3.85;;;21.20;99.90;;;;;;5053344;28;20155;-46
2023/10/07 10:08:59;;;;;;;8.95;3.80;;;21.00;99.90;;;;;;5062535;28;20055;-49
2023/10/07 10:11:47;;;;;;;8.10;3.88;;;20.80;99.90;;;;;;5057743;28;20112;-48
2023/10/07 10:16:53;;;;;;;9.07;3.70;;;20.50;99.90;;;;;;5057015;28;19920;-49
2023/10/07 10:19:28;;;;;;;8.73;3.72;;;20.50;99.90;;;;;;5059317;28;20101;-47
2023/10/07 10:21:54;;;;;;;9.60;3.85;;;20.60;99.90;;;;;;5065305;28;20040;-47
2023/10/07 10:24:25;;;;;;;8.25;3.53;;;20.30;99.90;;;;;;5058735;28;20045;-48
2023/10/07 10:27:01;;;;;;;9.13;4.00;;;20.20;99.90;;;;;;5069058;28;20042;-46
2023/10/07 10:29:31;;;;;;;11.95;4.22;;;;;;;;;;5060294;28;20087;-47
2023/10/07 10:32:03;;;;;;;10.00;4.05;;;20.10;99.90;;;;;;5062928;28;20036;-46
2023/10/07 10:34:29;;;;;;;12.73;4.22;;;20.10;99.90;;;;;;5066348;28;20048;-46
2023/10/07 10:36:59;;;;;;;10.57;3.88;;;20.10;99.90;;;;;;5065290;28;20039;-46
2023/10/07 10:39:33;;;;;;;9.40;3.88;;;20.00;99.90;;;;;;5058128;28;20442;-46
2023/10/07 10:42:09;;;;;;;11.25;4.55;;;20.20;99.90;;;;;;5059605;28;20555;-46
2023/10/07 10:44:39;;;;;;;11.32;4.32;;;20.20;99.90;;;;;;5065432;28;20084;-47
2023/10/07 10:47:07;;;;;;;9.13;3.85;;;20.30;99.90;;;;;;5065183;28;20120;-49
2023/10/07 10:49:35;;;;;;;9.20;3.70;;;20.40;99.90;;;;;;5063613;28;20032;-49
2023/10/07 10:52:02;;;;;;;12.20;4.00;;;20.50;99.90;;;;;;5067271;28;20086;-47
2023/10/07 10:54:28;;;;;;;;;;;20.50;99.90;;;;;;5064071;28;20124;-48
2023/10/07 10:56:57;;;;;;;11.70;4.10;;;20.70;99.90;;;;;;5060827;28;19995;-46
2023/10/07 10:59:48;;;;;;;12.15;4.30;;;20.70;99.90;;;;;;5065797;28;20036;-46
2023/10/07 11:02:20;;;;;;;12.48;4.80;;;20.70;99.90;;;;;;5062881;28;20040;-45
2023/10/07 11:04:55;;;;;;;12.95;4.28;;;20.70;99.90;;;;;;5061176;28;20128;-49
2023/10/07 11:07:24;;;;;;;10.95;4.82;;;20.70;99.90;;;;;;5061224;28;20061;-49
2023/10/07 11:09:51;;;;;;;12.30;4.25;;;20.60;99.90;;;;;;5059979;28;20036;-46
2023/10/07 11:12:18;;;;;;;12.55;4.20;;;20.50;99.90;;;;;;5059448;28;20049;-49
2023/10/07 11:14:48;;;;;;;13.05;4.75;;;20.40;99.90;;;;;;5058874;28;20514;-49
2023/10/07 11:17:15;;;;;;;11.48;4.43;;;20.30;99.90;;;;;;5056325;28;20041;-45
2023/10/07 11:19:51;;;;;;;11.30;4.68;;;20.30;99.90;;;;;;5063837;28;20047;-47
2023/10/07 11:22:20;;;;;;;12.30;4.60;;;20.40;99.90;;;;;;5060544;28;20036;-46
2023/10/07 11:24:49;;;;;;;9.45;3.78;;;20.40;99.90;;;;;;5068408;28;20047;-46
2023/10/07 11:27:19;;;;;;;12.38;4.00;;;20.50;99.90;;;;;;5067858;28;20040;-46
2023/10/07 11:29:55;;;;;;;15.27;4.10;;;20.50;99.90;;;;;;5066418;28;20068;-47
2023/10/07 11:32:29;;;;;;;9.45;4.28;;;20.50;99.90;;;;;;5065179;28;20517;-48
2023/10/07 11:34:55;;;;;;;13.82;4.65;;;20.60;99.90;;;;;;5060846;28;20044;-46
2023/10/07 11:37:24;;;;;;;9.38;4.28;;;20.80;99.90;;;;;;5062570;28;20076;-46
2023/10/07 11:39:50;;;;;;;12.23;4.85;;;20.80;99.90;;;;;;5063045;28;20493;-46
2023/10/07 11:42:21;;;;;;;11.73;4.53;;;20.90;99.90;;;;;;5064882;28;20133;-46
2023/10/07 11:44:54;;;;;;;11.35;4.53;;;20.90;99.90;;;;;;5062404;28;20048;-49
2023/10/07 11:47:21;;;;;;;16.08;5.20;;;21.10;99.90;;;;;;5055685;28;22201;-46
2023/10/07 11:49:47;;;;;;;13.07;4.35;;;21.20;99.90;;;;;;5065419;28;20044;-48
2023/10/07 11:52:14;;;;;;;13.27;4.38;;;21.00;99.90;;;;;;5069564;28;20044;-46
2023/10/07 11:54:40;;;;;;;13.00;4.50;;;21.00;99.90;;;;;;5071174;28;20044;-48
2023/10/07 11:57:06;;;;;;;10.10;3.95;;;21.00;99.90;;;;;;5069820;28;20036;-48
2023/10/07 11:59:40;;;;;;;10.95;4.20;;;20.90;99.90;;;;;;5069393;28;20170;-46
2023/10/07 12:02:10;;;;;;;10.65;4.30;;;20.90;99.90;;;;;;5054904;28;20511;-46
2023/10/07 12:04:39;;;;;;;10.90;3.95;;;21.00;99.90;;;;;;5055817;28;20055;-48
2023/10/07 12:07:14;;;;;;;10.70;4.28;;;21.20;99.90;;;;;;5067559;28;20502;-47
2023/10/07 12:09:40;;;;;;;10.38;5.03;;;21.30;99.90;;;;;;5058953;28;20045;-47
2023/10/07 12:12:09;;;;;;;16.90;5.60;;;21.40;99.90;;;;;;5069724;28;20133;-46
2023/10/07 12:14:36;;;;;;;11.13;4.10;;;21.40;99.90;;;;;;5070080;28;20048;-47
2023/10/07 12:17:04;;;;;;;12.85;4.07;;;21.50;99.90;;;;;;5053936;28;20517;-49
2023/10/07 12:19:31;;;;;;;10.48;4.60;;;21.20;99.90;;;;;;5061540;28;20041;-47
2023/10/07 12:21:57;;;;;;;10.73;4.70;;;21.30;99.90;;;;;;5056909;28;20409;-48
2023/10/07 12:24:22;;;;;;;13.13;4.63;;;21.30;99.90;;;;;;5057009;28;20041;-49
2023/10/07 12:26:50;;;;;;;10.40;4.07;;;21.30;99.90;;;;;;5056211;28;20411;-46
2023/10/07 12:29:19;;;;;;;10.55;4.72;;;21.40;99.90;;;;;;5064027;28;20043;-46
2023/10/07 12:31:45;;;;;;;12.05;4.45;;;21.50;99.90;;;;;;5069434;28;20490;-47
2023/10/07 12:34:13;;;;;;;14.75;5.30;;;21.50;99.90;;;;;;5051080;28;20064;-47
2023/10/07 12:36:39;;;;;;;10.70;4.30;;;21.50;99.90;;;;;;5059531;28;20051;-47
2023/10/07 12:39:11;;;;;;;10.73;4.78;;;21.60;99.90;;;;;;5069237;28;20048;-46
2023/10/07 12:41:47;;;;;;;14.45;4.63;;;21.50;99.90;;;;;;5064086;28;20106;-46
2023/10/07 12:44:13;;;;;;;13.60;4.13;;;21.40;99.90;;;;;;5063822;28;20056;-46
2023/10/07 12:46:40;;;;;;;19.60;5.05;;;21.30;99.90;;;;;;5065010;28;20109;-46
2023/10/07 12:49:10;;;;;;;13.52;4.95;;;21.10;99.90;;;;;;5065377;28;20086;-47
2023/10/07 12:51:41;;;;;;;13.82;4.65;;;21.10;99.90;;;;;;5051126;28;20102;-49
2023/10/07 12:54:10;;;;;;;13.70;4.35;;;21.20;99.90;;;;;;5054980;28;20036;-46
2023/10/07 12:56:37;;;;;;;12.57;4.75;;;21.30;99.90;;;;;;5064265;28;20050;-49
2023/10/07 12:59:07;;;;;;;14.85;5.28;;;21.40;99.90;;;;;;5049547;28;20524;-46
2023/10/07 13:01:34;;;;;;;12.65;4.68;;;21.40;99.90;;;;;;5068987;28;20054;-49
2023/10/07 13:04:00;;;;;;;10.32;4.65;;;21.40;99.90;;;;;;5068225;28;20048;-48
2023/10/07 13:06:28;;;;;;;9.77;4.43;;;21.40;99.90;;;;;;5069656;28;20044;-46
2023/10/07 13:08:53;;;;;;;11.68;4.85;;;21.40;99.90;;;;;;5071396;28;20040;-46
2023/10/07 13:11:20;;;;;;;11.40;4.15;;;21.60;99.90;;;;;;5071262;28;20059;-46
2023/10/07 13:13:46;;;;;;;11.93;4.30;;;21.60;99.90;;;;;;5066663;28;20052;-46
2023/10/07 13:16:13;;;;;;;12.95;4.75;;;21.80;99.90;;;;;;5057012;28;20052;-49
2023/10/07 13:18:44;;;;;;;14.13;4.78;;;21.80;99.90;;;;;;5057418;28;20052;-46
2023/10/07 13:21:19;;;;;;;11.20;4.00;;;21.90;99.90;;;;;;5054788;28;20047;-48
2023/10/07 13:23:45;;;;;;;12.57;4.80;;;21.70;99.90;;;;;;5054160;28;20044;-46
2023/10/07 13:26:11;;;;;;;12.20;4.60;;;21.50;99.90;;;;;;5064455;28;20071;-49
2023/10/07 13:28:38;;;;;;;12.05;4.35;;;21.30;99.90;;;;;;5073182;28;20044;-46
2023/10/07 13:31:09;;;;;;;17.35;4.75;;;21.30;99.90;;;;;;5072131;28;20730;-46
2023/10/07 13:33:38;;;;;;;14.35;4.90;;;21.10;99.90;;;;;;5065528;28;20368;-49
2023/10/07 13:36:06;;;;;;;11.80;5.00;;;21.00;99.90;;;;;;5063946;28;20047;-46
2023/10/07 13:38:32;;;;;;;9.85;4.30;;;21.00;99.90;;;;;;5066549;28;20037;-46
2023/10/07 13:41:00;;;;;;;9.75;4.38;;;21.00;99.90;;;;;;5069715;28;20394;-47
2023/10/07 13:43:26;;;;;;;11.77;4.65;;;20.90;99.90;;;;;;5062955;28;20045;-47
2023/10/07 13:45:53;;;;;;;10.40;4.55;;;20.90;99.90;;;;;;5054289;28;20529;-47
2023/10/07 13:48:18;;;;;;;9.48;4.43;;;21.00;99.90;;;;;;5056652;28;20364;-47
2023/10/07 13:50:46;;;;;;;11.80;4.35;;;21.00;99.90;;;;;;5052635;28;20049;-47
2023/10/07 13:53:13;;;;;;;12.02;4.80;;;20.80;99.90;;;;;;5060668;28;20120;-47